SAA0227 FMMI-FAOR
Flight info
| Callsign | SAA0227 |
|---|---|
| Flight time | N/A |
| Altitude | 36000 |
| Route | LIKID1E TW DCT SOPVI UB536 EROPA/N0501F280 UB536 ETIVI DCT IMKAN UT446 IBGUB |
| Aircraft | A333/H-SDE3GHIJ2J3J5M1RVWXY/LB2D1 |
Departure
| Time | 2026-04-23 14:08 |
|---|---|
| Airport | Ivato International Airport (FMMI) |
Arrival
| Time | N/A |
|---|---|
| Airport | O.R. Tambo International Airport (FAOR) |
| Time | Latitude | Longitude | Altitude | Speed | Heading |
|---|---|---|---|---|---|
| 2026-04-23 13:41 | -18.79991 | 47.47909 | 4176 ft | 0 kts | 189° |
| 2026-04-23 13:56 | -18.79988 | 47.47909 | 4176 ft | 2 kts | 189° |
| 2026-04-23 13:56 | -18.79973 | 47.47912 | 4176 ft | 2 kts | 189° |
| 2026-04-23 13:56 | -18.79971 | 47.47912 | 4176 ft | 2 kts | 189° |
| 2026-04-23 13:56 | -18.79963 | 47.47913 | 4176 ft | 2 kts | 189° |
| 2026-04-23 13:57 | -18.79948 | 47.47916 | 4175 ft | 2 kts | 189° |
| 2026-04-23 13:57 | -18.79933 | 47.47919 | 4175 ft | 2 kts | 189° |
| 2026-04-23 13:57 | -18.79928 | 47.47919 | 4175 ft | 2 kts | 189° |
| 2026-04-23 13:57 | -18.79909 | 47.47920 | 4175 ft | 2 kts | 162° |
| 2026-04-23 13:58 | -18.79888 | 47.47907 | 4174 ft | 2 kts | 131° |
| 2026-04-23 13:58 | -18.79879 | 47.47892 | 4173 ft | 2 kts | 109° |
| 2026-04-23 13:58 | -18.79876 | 47.47882 | 4173 ft | 1 kts | 97° |
| 2026-04-23 13:58 | -18.79876 | 47.47880 | 4173 ft | 0 kts | 98° |
| 2026-04-23 14:00 | -18.79876 | 47.47881 | 4173 ft | 0 kts | 99° |
| 2026-04-23 14:01 | -18.79876 | 47.47883 | 4173 ft | 1 kts | 99° |
| 2026-04-23 14:01 | -18.79880 | 47.47912 | 4173 ft | 6 kts | 100° |
| 2026-04-23 14:01 | -18.79890 | 47.47971 | 4174 ft | 10 kts | 100° |
| 2026-04-23 14:01 | -18.79899 | 47.48048 | 4174 ft | 10 kts | 85° |
| 2026-04-23 14:02 | -18.79853 | 47.48105 | 4172 ft | 11 kts | 17° |
| 2026-04-23 14:02 | -18.79762 | 47.48112 | 4169 ft | 15 kts | 344° |
| 2026-04-23 14:02 | -18.79715 | 47.48013 | 4168 ft | 16 kts | 277° |
| 2026-04-23 14:02 | -18.79697 | 47.47884 | 4169 ft | 18 kts | 279° |
| 2026-04-23 14:03 | -18.79675 | 47.47729 | 4171 ft | 23 kts | 278° |
| 2026-04-23 14:03 | -18.79649 | 47.47548 | 4173 ft | 27 kts | 279° |
| 2026-04-23 14:03 | -18.79614 | 47.47339 | 4179 ft | 30 kts | 282° |
| 2026-04-23 14:03 | -18.79582 | 47.47118 | 4188 ft | 31 kts | 278° |
| 2026-04-23 14:04 | -18.79548 | 47.46886 | 4199 ft | 32 kts | 279° |
| 2026-04-23 14:04 | -18.79513 | 47.46657 | 4211 ft | 31 kts | 279° |
| 2026-04-23 14:04 | -18.79462 | 47.46498 | 4218 ft | 17 kts | 304° |
| 2026-04-23 14:04 | -18.79459 | 47.46461 | 4219 ft | 2 kts | 219° |
| 2026-04-23 14:05 | -18.79472 | 47.46465 | 4219 ft | 2 kts | 137° |
| 2026-04-23 14:05 | -18.79487 | 47.46499 | 4218 ft | 7 kts | 102° |
| 2026-04-23 14:05 | -18.79489 | 47.46514 | 4217 ft | 0 kts | 100° |
| 2026-04-23 14:06 | -18.79490 | 47.46518 | 4217 ft | 1 kts | 100° |
| 2026-04-23 14:07 | -18.79506 | 47.46620 | 4213 ft | 40 kts | 99° |
| 2026-04-23 14:07 | -18.79739 | 47.48169 | 4169 ft | 164 kts | 100° |
| 2026-04-23 14:07 | -18.79917 | 47.49396 | 4647 ft | 170 kts | 100° |
| 2026-04-23 14:08 | -18.80094 | 47.50615 | 5262 ft | 168 kts | 101° |
| 2026-04-23 14:08 | -18.80267 | 47.51768 | 5762 ft | 160 kts | 101° |
| 2026-04-23 14:08 | -18.80449 | 47.52960 | 6000 ft | 170 kts | 99° |
| 2026-04-23 14:08 | -18.80635 | 47.54231 | 6225 ft | 182 kts | 101° |
| 2026-04-23 14:09 | -18.80834 | 47.55545 | 6527 ft | 189 kts | 99° |
| 2026-04-23 14:09 | -18.81042 | 47.56960 | 6658 ft | 211 kts | 101° |
| 2026-04-23 14:09 | -18.81282 | 47.58561 | 6944 ft | 231 kts | 101° |
| 2026-04-23 14:09 | -18.81540 | 47.60286 | 7333 ft | 247 kts | 99° |
| 2026-04-23 14:10 | -18.81804 | 47.62077 | 7653 ft | 264 kts | 101° |
| 2026-04-23 14:10 | -18.82509 | 47.63864 | 8137 ft | 273 kts | 128° |
| 2026-04-23 14:10 | -18.83977 | 47.65134 | 8776 ft | 277 kts | 153° |
| 2026-04-23 14:10 | -18.85872 | 47.65568 | 9407 ft | 284 kts | 180° |
| 2026-04-23 14:11 | -18.87812 | 47.65121 | 10072 ft | 288 kts | 193° |
| 2026-04-23 14:11 | -18.89743 | 47.64671 | 10620 ft | 294 kts | 188° |
| 2026-04-23 14:11 | -18.91820 | 47.64297 | 10877 ft | 311 kts | 187° |
| 2026-04-23 14:11 | -18.94033 | 47.63924 | 11106 ft | 329 kts | 187° |
| 2026-04-23 14:12 | -18.96356 | 47.63542 | 11306 ft | 347 kts | 186° |
| 2026-04-23 14:12 | -18.98802 | 47.63141 | 11498 ft | 362 kts | 187° |
| 2026-04-23 14:12 | -19.01319 | 47.62729 | 12016 ft | 366 kts | 187° |
| 2026-04-23 14:12 | -19.03793 | 47.62199 | 12557 ft | 371 kts | 196° |
| 2026-04-23 14:13 | -19.06089 | 47.60875 | 12992 ft | 380 kts | 216° |
| 2026-04-23 14:13 | -19.07801 | 47.58842 | 13491 ft | 386 kts | 235° |
| 2026-04-23 14:13 | -19.08845 | 47.56211 | 13929 ft | 395 kts | 254° |
| 2026-04-23 14:13 | -19.09031 | 47.53297 | 14326 ft | 403 kts | 274° |
| 2026-04-23 14:14 | -19.08321 | 47.50466 | 14771 ft | 408 kts | 292° |
| 2026-04-23 14:14 | -19.07166 | 47.47666 | 15206 ft | 409 kts | 285° |
| 2026-04-23 14:14 | -19.06662 | 47.44710 | 15579 ft | 412 kts | 277° |
| 2026-04-23 14:14 | -19.06144 | 47.41698 | 15910 ft | 418 kts | 279° |
| 2026-04-23 14:15 | -19.05615 | 47.38710 | 16348 ft | 420 kts | 279° |
| 2026-04-23 14:15 | -19.05071 | 47.35649 | 16685 ft | 425 kts | 279° |
| 2026-04-23 14:15 | -19.04528 | 47.32608 | 17137 ft | 425 kts | 279° |
| 2026-04-23 14:15 | -19.03982 | 47.29552 | 17463 ft | 429 kts | 279° |
| 2026-04-23 14:16 | -19.03415 | 47.26400 | 17777 ft | 433 kts | 278° |
| 2026-04-23 14:16 | -19.03367 | 47.23275 | 18186 ft | 430 kts | 260° |
| 2026-04-23 14:16 | -19.04226 | 47.20277 | 18562 ft | 426 kts | 242° |
| 2026-04-23 14:16 | -19.05546 | 47.17507 | 18855 ft | 430 kts | 246° |
| 2026-04-23 14:17 | -19.06527 | 47.14514 | 19241 ft | 431 kts | 248° |
| 2026-04-23 14:17 | -19.07514 | 47.11489 | 19643 ft | 432 kts | 248° |
| 2026-04-23 14:17 | -19.08484 | 47.08508 | 19985 ft | 434 kts | 248° |
| 2026-04-23 14:17 | -19.09466 | 47.05497 | 20286 ft | 436 kts | 248° |
| 2026-04-23 14:18 | -19.10450 | 47.02468 | 20639 ft | 437 kts | 249° |
| 2026-04-23 14:18 | -19.11444 | 46.99411 | 21052 ft | 437 kts | 248° |
| 2026-04-23 14:18 | -19.12423 | 46.96399 | 21342 ft | 439 kts | 249° |
| 2026-04-23 14:18 | -19.13409 | 46.93354 | 21629 ft | 442 kts | 248° |
| 2026-04-23 14:19 | -19.14405 | 46.90282 | 21990 ft | 442 kts | 248° |
| 2026-04-23 14:19 | -19.15400 | 46.87215 | 22266 ft | 444 kts | 249° |
| 2026-04-23 14:19 | -19.16404 | 46.84111 | 22557 ft | 446 kts | 248° |
| 2026-04-23 14:19 | -19.17416 | 46.80984 | 22867 ft | 447 kts | 249° |
| 2026-04-23 14:20 | -19.18412 | 46.77903 | 23161 ft | 448 kts | 249° |
| 2026-04-23 14:20 | -19.19416 | 46.74792 | 23423 ft | 450 kts | 248° |
| 2026-04-23 14:20 | -19.20440 | 46.71627 | 23709 ft | 452 kts | 248° |
| 2026-04-23 14:20 | -19.21446 | 46.68505 | 24031 ft | 452 kts | 248° |
| 2026-04-23 14:21 | -19.22454 | 46.65380 | 24296 ft | 454 kts | 249° |
| 2026-04-23 14:21 | -19.23479 | 46.62198 | 24564 ft | 455 kts | 248° |
| 2026-04-23 14:21 | -19.24491 | 46.59058 | 24881 ft | 456 kts | 248° |
| 2026-04-23 14:21 | -19.25677 | 46.55947 | 25173 ft | 453 kts | 241° |
| 2026-04-23 14:22 | -19.27090 | 46.52969 | 25414 ft | 455 kts | 240° |
| 2026-04-23 14:22 | -19.28501 | 46.49972 | 25679 ft | 457 kts | 240° |
| 2026-04-23 14:22 | -19.29909 | 46.46965 | 25985 ft | 457 kts | 240° |
| 2026-04-23 14:22 | -19.31327 | 46.43936 | 26230 ft | 459 kts | 240° |
| 2026-04-23 14:23 | -19.32747 | 46.40903 | 26473 ft | 460 kts | 241° |
| 2026-04-23 14:23 | -19.34164 | 46.37868 | 26757 ft | 461 kts | 241° |
| 2026-04-23 14:23 | -19.35583 | 46.34833 | 27007 ft | 462 kts | 241° |
| 2026-04-23 14:23 | -19.37015 | 46.31768 | 27226 ft | 464 kts | 241° |
| 2026-04-23 14:24 | -19.38435 | 46.28725 | 27475 ft | 465 kts | 241° |
| 2026-04-23 14:24 | -19.39872 | 46.25642 | 27761 ft | 466 kts | 241° |
| 2026-04-23 14:24 | -19.41301 | 46.22578 | 28004 ft | 467 kts | 241° |
| 2026-04-23 14:24 | -19.42747 | 46.19475 | 28245 ft | 468 kts | 241° |
| 2026-04-23 14:25 | -19.44176 | 46.16409 | 28420 ft | 470 kts | 242° |
| 2026-04-23 14:25 | -19.45625 | 46.13295 | 28666 ft | 470 kts | 241° |
| 2026-04-23 14:25 | -19.47066 | 46.10199 | 28914 ft | 470 kts | 241° |
| 2026-04-23 14:25 | -19.48521 | 46.07067 | 29125 ft | 471 kts | 241° |
| 2026-04-23 14:26 | -19.49967 | 46.03956 | 29312 ft | 472 kts | 241° |
| 2026-04-23 14:26 | -19.51403 | 46.00865 | 29570 ft | 472 kts | 241° |
| 2026-04-23 14:26 | -19.52845 | 45.97757 | 29855 ft | 471 kts | 241° |
| 2026-04-23 14:26 | -19.54297 | 45.94628 | 30118 ft | 471 kts | 241° |
| 2026-04-23 14:27 | -19.55724 | 45.91550 | 30367 ft | 470 kts | 241° |
| 2026-04-23 14:27 | -19.57175 | 45.88419 | 30648 ft | 470 kts | 241° |
| 2026-04-23 14:27 | -19.58594 | 45.85356 | 30937 ft | 469 kts | 241° |
| 2026-04-23 14:27 | -19.60039 | 45.82235 | 31208 ft | 468 kts | 241° |
| 2026-04-23 14:28 | -19.61459 | 45.79167 | 31461 ft | 468 kts | 241° |
| 2026-04-23 14:28 | -19.62902 | 45.76045 | 31765 ft | 467 kts | 241° |
| 2026-04-23 14:28 | -19.64329 | 45.72959 | 32012 ft | 467 kts | 241° |
| 2026-04-23 14:28 | -19.65756 | 45.69871 | 32261 ft | 467 kts | 241° |
| 2026-04-23 14:29 | -19.67167 | 45.66812 | 32582 ft | 465 kts | 241° |
| 2026-04-23 14:29 | -19.68583 | 45.63744 | 32817 ft | 465 kts | 241° |
| 2026-04-23 14:29 | -19.70013 | 45.60646 | 33055 ft | 465 kts | 241° |
| 2026-04-23 14:29 | -19.71423 | 45.57585 | 33347 ft | 464 kts | 241° |
| 2026-04-23 14:30 | -19.72830 | 45.54532 | 33658 ft | 464 kts | 241° |
| 2026-04-23 14:30 | -19.74237 | 45.51474 | 33965 ft | 462 kts | 241° |
| 2026-04-23 14:30 | -19.75651 | 45.48402 | 34255 ft | 462 kts | 241° |
| 2026-04-23 14:30 | -19.77062 | 45.45334 | 34556 ft | 461 kts | 241° |
| 2026-04-23 14:31 | -19.78443 | 45.42331 | 34851 ft | 460 kts | 241° |
| 2026-04-23 14:31 | -19.79852 | 45.39264 | 35146 ft | 459 kts | 241° |
| 2026-04-23 14:31 | -19.81236 | 45.36248 | 35459 ft | 458 kts | 241° |
| 2026-04-23 14:31 | -19.82637 | 45.33199 | 35745 ft | 457 kts | 242° |
| 2026-04-23 14:32 | -19.84020 | 45.30181 | 35961 ft | 458 kts | 242° |
| 2026-04-23 14:32 | -19.85423 | 45.27125 | 35914 ft | 464 kts | 242° |
| 2026-04-23 14:32 | -19.88264 | 45.20920 | 35967 ft | 470 kts | 242° |
| 2026-04-23 14:33 | -19.91129 | 45.14658 | 35967 ft | 474 kts | 242° |
| 2026-04-23 14:33 | -19.93976 | 45.08427 | 35905 ft | 479 kts | 242° |
| 2026-04-23 14:34 | -19.96883 | 45.02062 | 35874 ft | 481 kts | 242° |
| 2026-04-23 14:34 | -19.99781 | 44.95708 | 35919 ft | 482 kts | 242° |
| 2026-04-23 14:35 | -20.02690 | 44.89321 | 35969 ft | 481 kts | 242° |
| 2026-04-23 14:35 | -20.04159 | 44.86092 | 35859 ft | 483 kts | 242° |
| 2026-04-23 14:35 | -20.05612 | 44.82896 | 35929 ft | 478 kts | 242° |
| 2026-04-23 14:36 | -20.08495 | 44.76555 | 35856 ft | 478 kts | 242° |
| 2026-04-23 14:36 | -20.11408 | 44.70139 | 35851 ft | 478 kts | 242° |
| 2026-04-23 14:37 | -20.14291 | 44.63776 | 35902 ft | 477 kts | 242° |
| 2026-04-23 14:37 | -20.17163 | 44.57435 | 35942 ft | 477 kts | 242° |
| 2026-04-23 14:38 | -20.20022 | 44.51114 | 35895 ft | 475 kts | 242° |
| 2026-04-23 14:38 | -20.22903 | 44.44738 | 35843 ft | 477 kts | 242° |
| 2026-04-23 14:39 | -20.25842 | 44.38226 | 35849 ft | 477 kts | 242° |
| 2026-04-23 14:39 | -20.28744 | 44.31792 | 35905 ft | 475 kts | 243° |
| 2026-04-23 14:40 | -20.32000 | 44.25632 | 35931 ft | 473 kts | 239° |
| 2026-04-23 14:40 | -20.35266 | 44.19508 | 35884 ft | 474 kts | 239° |
| 2026-04-23 14:41 | -20.38532 | 44.13357 | 35835 ft | 475 kts | 239° |
| 2026-04-23 14:41 | -20.41777 | 44.07235 | 35850 ft | 475 kts | 239° |
| 2026-04-23 14:42 | -20.45063 | 44.01030 | 35907 ft | 474 kts | 239° |
| 2026-04-23 14:42 | -20.48309 | 43.94894 | 35925 ft | 474 kts | 239° |
| 2026-04-23 14:43 | -20.51580 | 43.88704 | 35863 ft | 474 kts | 239° |
| 2026-04-23 14:43 | -20.54822 | 43.82563 | 35852 ft | 476 kts | 240° |
| 2026-04-23 14:44 | -20.58037 | 43.76464 | 35893 ft | 476 kts | 239° |
| 2026-04-23 14:44 | -20.61288 | 43.70291 | 35945 ft | 474 kts | 240° |
| 2026-04-23 14:45 | -20.64540 | 43.64108 | 35918 ft | 473 kts | 240° |
| 2026-04-23 14:45 | -20.67764 | 43.57975 | 35867 ft | 475 kts | 240° |
| 2026-04-23 14:46 | -20.71031 | 43.51752 | 35869 ft | 477 kts | 240° |
| 2026-04-23 14:46 | -20.74277 | 43.45561 | 35921 ft | 475 kts | 240° |
| 2026-04-23 14:47 | -20.77517 | 43.39376 | 35941 ft | 474 kts | 240° |
| 2026-04-23 14:47 | -20.80750 | 43.33195 | 35901 ft | 474 kts | 240° |
| 2026-04-23 14:48 | -20.83978 | 43.27017 | 35863 ft | 476 kts | 240° |
| 2026-04-23 14:48 | -20.87203 | 43.20843 | 35907 ft | 476 kts | 240° |
| 2026-04-23 14:49 | -20.90450 | 43.14614 | 35959 ft | 476 kts | 240° |
| 2026-04-23 14:49 | -20.93664 | 43.08444 | 35941 ft | 476 kts | 241° |
| 2026-04-23 14:50 | -20.96914 | 43.02196 | 35888 ft | 477 kts | 241° |
| 2026-04-23 14:50 | -21.00139 | 42.95991 | 35890 ft | 478 kts | 241° |
| 2026-04-23 14:51 | -21.03365 | 42.89777 | 35932 ft | 477 kts | 241° |
| 2026-04-23 14:51 | -21.06600 | 42.83539 | 35952 ft | 475 kts | 241° |
| 2026-04-23 14:52 | -21.09817 | 42.77325 | 35908 ft | 476 kts | 241° |
| 2026-04-23 14:52 | -21.13052 | 42.71072 | 35883 ft | 478 kts | 241° |
| 2026-04-23 14:53 | -21.16283 | 42.64820 | 35919 ft | 477 kts | 241° |
| 2026-04-23 14:53 | -21.19496 | 42.58593 | 35957 ft | 477 kts | 241° |
| 2026-04-23 14:54 | -21.22732 | 42.52317 | 35935 ft | 475 kts | 242° |
| 2026-04-23 14:54 | -21.25931 | 42.46104 | 35892 ft | 476 kts | 242° |
| 2026-04-23 14:55 | -21.29153 | 42.39840 | 35913 ft | 477 kts | 242° |
| 2026-04-23 14:55 | -21.32368 | 42.33583 | 35970 ft | 476 kts | 242° |
| 2026-04-23 14:56 | -21.35557 | 42.27369 | 35976 ft | 475 kts | 242° |
| 2026-04-23 14:56 | -21.38768 | 42.21105 | 35920 ft | 477 kts | 242° |
| 2026-04-23 14:57 | -21.41985 | 42.14822 | 35935 ft | 478 kts | 242° |
| 2026-04-23 14:57 | -21.45171 | 42.08591 | 35990 ft | 476 kts | 242° |
| 2026-04-23 14:58 | -21.48376 | 42.02316 | 36005 ft | 474 kts | 242° |
| 2026-04-23 14:58 | -21.51562 | 41.96073 | 35966 ft | 474 kts | 242° |
| 2026-04-23 14:59 | -21.54742 | 41.89830 | 35938 ft | 475 kts | 242° |
| 2026-04-23 14:59 | -21.57905 | 41.83615 | 35982 ft | 476 kts | 242° |
| 2026-04-23 15:00 | -21.61166 | 41.77204 | 36021 ft | 475 kts | 242° |
| 2026-04-23 15:00 | -21.64405 | 41.70824 | 36001 ft | 475 kts | 242° |